aviador You're here:

UKHH Decoded Metar

KHARKOV in UKRAINE
Report Time2017-10-23 06:00:00
UTC Time2017-10-23 06:15:22
Flight Rules vfr VFR
WindCalm
Visibility9999 m
Phenomena:N/A
Clouds:N/A
Expected CloudBase > 800 ft AGL from Temp-Dew spread
CeilingNone
Temp00°C (ISA -14)
Dew Point-2°C (87% RH)
AAT-2.2°C
QNH1022 hPa
Density Alt-1,430 ft
Elevation509 ft
Report Wrong Elevation
Raw Report
UKHH 230600Z 00000MPS CAVOK M00/M02 Q1022 R07/0///66 NOSIG=

Extra information for UKHH:More info

Metar Taf Metar & Taf Last 4 Metars F.Rules Stats Wind Profile Meteogram Temp Stats Airport Information Weather charts Add Link Nearby VenuesMetar ALERT Operation Metar Decoded Social comments